Impacts METAR Board
IDs:

KIAD - Washington/Dulles In, VA, US

Updated at: 1300 UTC 25 Jun 2019
Potential Impact None Slight Moderate High
Time 25/01Z 25/02Z 25/03Z 25/04Z 25/05Z 25/06Z 25/07Z 25/08Z 25/09Z 25/10Z 25/11Z 25/12Z 25/13Z
Temp74 73 73 72 72 73 73 72 71 70 74 74 77
Dewpt71 70 71 70 70 71 71 70 69 69 68 66 66
Altim29.82 29.82 29.80 29.80 29.80 29.80 29.80 29.78 29.79 29.81 29.84 29.86 29.88
VIS10 10 10 10 10 6 8 10 9 9 10 10 10
CIG-- 85 5 180 55 45 140 110 120 140 180 180 250
CoverSCTBKNBKNBKNOVCOVCOVCBKNBKNBKNBKNBKNBKN
FltCatVFRVFRIFRVFRVFRVFRVFRVFRVFRVFRVFRVFRVFR
WX-----------TSRA BR-RA----BCFG------
WDir19020014018001900000330320310
WSpd4 4 5 3 0 4 0 0 0 0 6 8 10
WGst-- -- -- -- -- -- -- -- -- -- -- -- --
Raw hourly METARs
KIAD 250052Z 19004KT 10SM FEW010 FEW090 FEW150 SCT250 23/22 A2982 RMK AO2 SLP095 T02330217
KIAD 250203Z 20004KT 10SM SCT006 BKN085 BKN250 23/21 A2982 RMK AO2 T02280211
KIAD 250252Z 14005KT 10SM BKN005 BKN140 BKN170 23/22 A2980 RMK AO2 SLP089 T02280217 58005
KIAD 250352Z 18003KT 10SM SCT006 SCT100 BKN180 BKN230 22/21 A2980 RMK AO2 SLP086 LTG DSNT W T02220211
KIAD 250452Z 00000KT 10SM BKN055 BKN140 OVC180 22/21 A2980 RMK AO2 SLP086 LTG DSNT SW-NW T02220211 403220189
KIAD 250552Z 19004KT 6SM -TSRA BR SCT015 BKN045CB BKN070 OVC130 23/22 A2980 RMK AO2 RAB14 TSB08 SLP088 OCNL LTGCGICCC OHD TS OHD MOV NE P0003 60003 T02280217 10250 20222 53000
KIAD 250652Z 00000KT 8SM -RA SCT018 SCT040 OVC140 23/22 A2980 RMK AO2 TSE31 SLP086 LTG DSNT NE-E TS MOV NE P0012 T02280217
KIAD 250752Z 00000KT 10SM FEW015 SCT041 BKN110 BKN180 OVC220 22/21 A2978 RMK AO2 RAE31 SLP081 P0002 T02220211
KIAD 250852Z 00000KT 9SM FEW015 SCT040 BKN120 BKN200 BKN250 22/21 A2979 RMK AO2 SLP084 60014 T02170206 55005
KIAD 250952Z 00000KT 9SM BCFG FEW015 SCT030 BKN140 BKN180 21/21 A2981 RMK AO2 SLP090 T02110206
KIAD 251052Z 33006KT 10SM FEW030 SCT140 BKN180 BKN250 23/20 A2984 RMK AO2 SLP100 T02330200
KIAD 251152Z 32008KT 10SM FEW150 BKN180 BKN250 23/19 A2986 RMK AO2 SLP108 60014 70036 T02330189 10233 20211 53024
KIAD 251252Z 31010KT 10SM FEW150 BKN250 25/19 A2988 RMK AO2 SLP114 T02500189



Page loaded:  13:43 UTC  |   06:43 AM Pacific  |   07:43 AM Mountain  |   08:43 AM Central  |   09:43 AM Eastern

 

ADVISORIES

FORECASTS

FORECASTS

OBSERVATIONS

USER TOOLS

ABOUT US